createdAt,value
2018-08-23T00:01:07.624Z,16.90
2018-08-23T00:03:38.120Z,13.43
2018-08-23T00:06:06.664Z,15.53
2018-08-23T00:08:35.128Z,13.83
2018-08-23T00:11:03.696Z,17.93
2018-08-23T00:13:36.324Z,17.93
2018-08-23T00:16:04.817Z,18.97
2018-08-23T00:18:33.254Z,17.53
2018-08-23T00:21:01.700Z,19.00
2018-08-23T00:23:30.106Z,18.07
2018-08-23T00:25:58.533Z,16.40
2018-08-23T00:28:26.868Z,16.73
2018-08-23T00:30:55.330Z,15.73
2018-08-23T00:33:23.837Z,13.70
2018-08-23T00:35:52.284Z,14.37
2018-08-23T00:38:20.761Z,15.03
2018-08-23T00:40:49.189Z,12.83
2018-08-23T00:43:17.653Z,17.50
2018-08-23T00:45:46.265Z,16.27
2018-08-23T00:48:14.717Z,14.43
2018-08-23T00:50:52.064Z,13.00
2018-08-23T00:53:20.782Z,11.50
2018-08-23T00:55:53.699Z,13.43
2018-08-23T00:58:22.062Z,19.50
2018-08-23T01:00:54.665Z,16.43
2018-08-23T01:03:23.152Z,16.20
2018-08-23T01:05:51.600Z,16.50
2018-08-23T01:08:26.211Z,17.63
2018-08-23T01:10:54.621Z,13.53
2018-08-23T01:13:23.046Z,17.00
2018-08-23T01:15:51.568Z,17.50
2018-08-23T01:18:21.055Z,13.80
2018-08-23T01:20:51.843Z,14.27
2018-08-23T01:23:20.417Z,18.17
2018-08-23T01:25:49.654Z,13.90
2018-08-23T01:28:18.146Z,14.53
2018-08-23T01:30:47.547Z,13.10
2018-08-23T01:33:18.176Z,19.00
2018-08-23T01:35:47.850Z,15.83
2018-08-23T01:38:16.698Z,19.43
2018-08-23T01:40:45.221Z,19.00
2018-08-23T01:43:13.860Z,15.97
2018-08-23T01:45:42.312Z,16.37
2018-08-23T01:48:11.416Z,19.77
2018-08-23T01:50:39.903Z,13.77
2018-08-23T01:53:08.304Z,16.93
2018-08-23T01:55:36.689Z,18.43
2018-08-23T01:58:05.242Z,16.77
2018-08-23T02:00:35.278Z,18.27
2018-08-23T02:03:04.111Z,18.17
2018-08-23T02:05:32.569Z,13.17
2018-08-23T02:08:00.964Z,11.40
2018-08-23T02:10:29.442Z,16.90
2018-08-23T02:12:58.622Z,15.87
2018-08-23T02:15:35.249Z,17.87
2018-08-23T02:18:04.005Z,14.90
2018-08-23T02:20:32.401Z,17.73
2018-08-23T02:23:01.943Z,14.57
2018-08-23T02:25:30.398Z,18.13
2018-08-23T02:28:01.073Z,16.10
2018-08-23T02:30:43.100Z,18.17
2018-08-23T02:33:12.702Z,16.93
2018-08-23T02:35:47.432Z,15.63
2018-08-23T02:38:16.279Z,16.17
2018-08-23T02:40:44.773Z,18.27
2018-08-23T02:43:13.257Z,13.53
2018-08-23T02:45:47.017Z,15.70
2018-08-23T02:48:15.487Z,17.73
2018-08-23T02:50:43.964Z,19.20
2018-08-23T02:53:29.652Z,16.77
2018-08-23T02:56:02.579Z,18.33
2018-08-23T02:58:31.039Z,16.53
2018-08-23T03:01:00.537Z,13.80
2018-08-23T03:03:28.929Z,14.30
2018-08-23T03:05:57.373Z,14.00
2018-08-23T03:08:37.045Z,15.13
2018-08-23T03:11:05.628Z,14.77
2018-08-23T03:13:35.821Z,10.27
2018-08-23T03:16:04.254Z,12.17
2018-08-23T03:18:33.179Z,10.13
2018-08-23T03:21:05.827Z,9.60
2018-08-23T03:23:34.251Z,10.23
2018-08-23T03:26:02.676Z,8.37
2018-08-23T03:28:31.833Z,10.67
2018-08-23T03:31:00.714Z,8.57
2018-08-23T03:33:29.987Z,9.13
2018-08-23T03:35:58.389Z,10.83
2018-08-23T03:38:26.915Z,7.47
2018-08-23T03:40:55.540Z,10.57
2018-08-23T03:43:23.936Z,7.03
2018-08-23T03:45:52.338Z,9.87
2018-08-23T03:48:20.774Z,11.40
2018-08-23T03:50:52.884Z,8.77
2018-08-23T03:53:21.666Z,10.33
2018-08-23T03:56:03.861Z,9.53
2018-08-23T03:58:32.348Z,9.17
2018-08-23T04:01:03.989Z,10.30
2018-08-23T04:03:32.584Z,7.20
2018-08-23T04:06:42.700Z,11.27
2018-08-23T04:09:11.228Z,7.27
2018-08-23T04:11:39.860Z,9.20
2018-08-23T04:14:08.349Z,9.33
2018-08-23T04:16:36.762Z,9.20
2018-08-23T04:19:05.153Z,8.10
2018-08-23T04:21:33.630Z,7.07
2018-08-23T04:24:02.196Z,6.90
2018-08-23T04:26:30.701Z,12.67
2018-08-23T04:28:59.066Z,11.43
2018-08-23T04:31:27.557Z,9.00
2018-08-23T04:33:55.993Z,9.97
2018-08-23T04:36:29.498Z,8.03
2018-08-23T04:39:00.340Z,11.70
2018-08-23T04:41:29.656Z,10.60
2018-08-23T04:44:06.461Z,10.53
2018-08-23T04:46:35.825Z,13.97
2018-08-23T04:49:06.040Z,14.33
2018-08-23T04:51:35.331Z,11.33
2018-08-23T04:54:03.820Z,17.47
2018-08-23T04:56:32.626Z,13.70
2018-08-23T04:59:02.094Z,15.23
2018-08-23T05:01:30.732Z,17.00
2018-08-23T05:03:59.341Z,13.77
2018-08-23T05:06:31.232Z,15.03
2018-08-23T05:08:59.781Z,12.70
2018-08-23T05:11:28.420Z,13.57
2018-08-23T05:13:56.890Z,15.23
2018-08-23T05:16:25.273Z,19.83
2018-08-23T05:18:53.768Z,15.10
2018-08-23T05:21:22.306Z,17.10
2018-08-23T05:23:51.284Z,24.13
2018-08-23T05:26:19.822Z,19.13
2018-08-23T05:29:00.412Z,19.48
2018-08-23T05:31:30.330Z,17.00
2018-08-23T05:34:01.732Z,16.27
2018-08-23T05:36:30.174Z,14.23
2018-08-23T05:38:58.868Z,15.17
2018-08-23T05:41:27.361Z,16.43
2018-08-23T05:44:03.374Z,17.00
2018-08-23T05:46:38.746Z,22.37
2018-08-23T05:49:08.598Z,19.63
2018-08-23T05:51:38.948Z,25.53
2018-08-23T05:54:07.364Z,25.27
2018-08-23T05:56:36.361Z,26.70
2018-08-23T05:59:10.976Z,22.73
2018-08-23T06:01:39.517Z,20.00
2018-08-23T06:04:08.064Z,22.27
2018-08-23T06:06:36.607Z,21.20
2018-08-23T06:09:07.263Z,24.73
2018-08-23T06:11:35.711Z,24.07
2018-08-23T06:14:04.227Z,21.43
2018-08-23T06:16:38.284Z,25.73
2018-08-23T06:19:06.875Z,31.03
2018-08-23T06:21:35.467Z,23.80
2018-08-23T06:24:04.773Z,24.00
2018-08-23T06:26:42.361Z,28.40
2018-08-23T06:29:13.648Z,20.30
2018-08-23T06:32:11.554Z,24.10
2018-08-23T06:34:51.385Z,25.03
2018-08-23T06:37:21.152Z,25.10
2018-08-23T06:39:49.617Z,26.77
2018-08-23T06:42:18.021Z,33.27
2018-08-23T06:44:53.943Z,27.80
2018-08-23T06:47:23.913Z,26.40
2018-08-23T06:49:53.653Z,21.63
2018-08-23T06:53:04.441Z,31.63
2018-08-23T06:55:35.058Z,26.27
2018-08-23T06:58:04.407Z,26.27
2018-08-23T07:00:33.252Z,22.10
2018-08-23T07:03:04.079Z,20.47
2018-08-23T07:05:32.659Z,28.50
2018-08-23T07:08:01.014Z,22.30
2018-08-23T07:10:29.825Z,19.07
2018-08-23T07:12:59.159Z,24.20
2018-08-23T07:15:27.669Z,25.57
2018-08-23T07:17:56.196Z,23.03
2018-08-23T07:20:24.638Z,21.23
2018-08-23T07:22:53.142Z,16.40
2018-08-23T07:25:21.581Z,28.92
2018-08-23T07:27:49.974Z,21.13
2018-08-23T07:30:19.627Z,24.07
2018-08-23T07:32:49.371Z,24.00
2018-08-23T07:35:19.104Z,25.87
2018-08-23T07:37:49.147Z,22.53
2018-08-23T07:40:20.669Z,29.47
2018-08-23T07:42:50.447Z,25.47
2018-08-23T07:45:18.838Z,24.10
2018-08-23T07:47:48.507Z,22.70
2018-08-23T07:50:16.976Z,22.43
2018-08-23T07:52:46.773Z,27.67
2018-08-23T07:55:15.260Z,22.80
2018-08-23T07:57:44.139Z,23.30
2018-08-23T08:00:28.118Z,22.63
2018-08-23T08:02:56.605Z,19.20
2018-08-23T08:05:30.278Z,19.37
2018-08-23T08:07:58.793Z,24.53
2018-08-23T08:10:32.198Z,18.47
2018-08-23T08:13:00.664Z,20.70
2018-08-23T08:15:29.053Z,27.77
2018-08-23T08:18:05.446Z,25.73
2018-08-23T08:20:34.304Z,26.57
2018-08-23T08:23:02.710Z,32.33
2018-08-23T08:25:32.491Z,27.17
2018-08-23T08:28:00.996Z,26.27
2018-08-23T08:30:42.246Z,25.27
2018-08-23T08:33:13.482Z,22.97
2018-08-23T08:35:42.510Z,26.57
2018-08-23T08:38:11.122Z,19.30
2018-08-23T08:40:39.617Z,29.67
2018-08-23T08:43:08.085Z,29.70
2018-08-23T08:45:36.542Z,36.20
2018-08-23T08:48:13.743Z,32.57
2018-08-23T08:50:47.646Z,23.63
2018-08-23T08:53:16.149Z,33.63
2018-08-23T08:55:44.718Z,25.90
2018-08-23T08:58:13.270Z,25.30
2018-08-23T09:00:51.330Z,24.30
2018-08-23T09:03:21.406Z,23.53
2018-08-23T09:05:49.841Z,23.70
2018-08-23T09:08:18.444Z,32.50
2018-08-23T09:10:46.941Z,26.00
2018-08-23T09:13:15.441Z,23.90
2018-08-23T09:15:47.958Z,25.20
2018-08-23T09:18:20.888Z,17.63
2018-08-23T09:20:52.646Z,21.90
2018-08-23T09:23:21.144Z,16.20
2018-08-23T09:25:49.652Z,22.67
2018-08-23T09:28:19.909Z,25.73
2018-08-23T09:30:48.373Z,23.87
2018-08-23T09:33:23.089Z,26.57
2018-08-23T09:35:51.661Z,19.17
2018-08-23T09:38:20.080Z,23.30
2018-08-23T09:40:48.678Z,20.67
2018-08-23T09:43:17.165Z,20.03
2018-08-23T09:45:45.937Z,19.67
2018-08-23T09:48:15.081Z,19.43
2018-08-23T09:50:43.685Z,19.87
2018-08-23T09:53:17.529Z,22.60
2018-08-23T09:55:47.646Z,18.47
2018-08-23T09:58:25.666Z,11.77
2018-08-23T10:00:59.832Z,18.40
2018-08-23T10:03:34.736Z,15.67
2018-08-23T10:06:08.688Z,21.60
2018-08-23T10:08:42.604Z,16.50
2018-08-23T10:11:19.805Z,16.53
2018-08-23T10:13:53.370Z,18.55
2018-08-23T10:16:27.362Z,14.70
2018-08-23T10:18:59.650Z,15.83
2018-08-23T10:21:33.599Z,13.07
2018-08-23T10:24:15.276Z,15.80
2018-08-23T10:26:43.949Z,19.90
2018-08-23T10:29:12.463Z,18.83
2018-08-23T10:31:40.978Z,17.17
2018-08-23T10:34:09.502Z,15.33
2018-08-23T10:36:38.122Z,20.77
2018-08-23T10:39:09.459Z,18.97
2018-08-23T10:41:38.226Z,18.80
2018-08-23T10:44:06.990Z,20.83
2018-08-23T10:46:40.873Z,16.57
2018-08-23T10:49:09.536Z,22.37
2018-08-23T10:51:38.165Z,15.20
2018-08-23T10:54:06.650Z,13.60
2018-08-23T10:56:35.121Z,16.77
2018-08-23T10:59:03.662Z,15.37
2018-08-23T11:01:32.162Z,17.47
2018-08-23T11:04:05.473Z,13.70
2018-08-23T11:06:35.066Z,14.40
2018-08-23T11:10:08.077Z,14.60
2018-08-23T11:12:41.926Z,16.17
2018-08-23T11:15:15.812Z,15.83
2018-08-23T11:17:49.598Z,15.33
2018-08-23T11:20:23.400Z,14.83
2018-08-23T11:23:04.129Z,19.27
2018-08-23T11:25:32.670Z,20.23
2018-08-23T11:28:06.448Z,19.47
2018-08-23T11:30:35.139Z,19.10
2018-08-23T11:33:08.120Z,20.07
2018-08-23T11:35:37.096Z,22.20
2018-08-23T11:38:06.661Z,22.17
2018-08-23T11:40:35.518Z,20.70
2018-08-23T11:43:04.513Z,21.23
2018-08-23T11:45:38.079Z,19.23
2018-08-23T11:48:06.531Z,16.87
2018-08-23T11:50:38.200Z,22.57
2018-08-23T11:53:08.474Z,21.20
2018-08-23T11:55:39.036Z,18.93
2018-08-23T11:58:12.976Z,18.07
2018-08-23T12:00:41.602Z,18.60
2018-08-23T12:03:10.268Z,17.03
2018-08-23T12:05:39.857Z,16.57
2018-08-23T12:08:08.541Z,19.90
2018-08-23T12:10:37.937Z,19.97
2018-08-23T12:13:06.526Z,21.37
2018-08-23T12:15:35.209Z,19.30
2018-08-23T12:18:05.553Z,17.87
2018-08-23T12:20:37.007Z,14.63
2018-08-23T12:23:05.617Z,12.70
2018-08-23T12:25:35.777Z,15.17
2018-08-23T12:28:12.482Z,14.53
2018-08-23T12:30:44.779Z,13.73
2018-08-23T12:33:13.469Z,15.93
2018-08-23T12:35:46.811Z,15.37
2018-08-23T13:02:48.311Z,20.10
2018-08-23T13:05:17.605Z,19.50
2018-08-23T13:07:46.220Z,19.83
2018-08-23T13:10:15.241Z,21.37
2018-08-23T13:12:43.896Z,17.47
2018-08-23T13:15:12.709Z,16.30
2018-08-23T13:17:41.470Z,15.90
2018-08-23T13:20:10.097Z,15.60
2018-08-23T13:22:40.322Z,15.93
2018-08-23T13:25:11.119Z,17.03
2018-08-23T13:27:43.631Z,15.53
2018-08-23T13:30:12.325Z,20.08
2018-08-23T13:32:41.145Z,18.87
2018-08-23T13:35:10.829Z,15.83
2018-08-23T13:37:40.437Z,21.50
2018-08-23T13:40:14.482Z,15.37
2018-08-23T13:42:43.128Z,21.80
2018-08-23T13:45:11.709Z,16.40
2018-08-23T13:47:40.373Z,18.50
2018-08-23T13:50:09.250Z,15.30
2018-08-23T13:52:37.749Z,19.10
2018-08-23T13:55:06.357Z,17.00
2018-08-23T13:57:34.873Z,20.90
2018-08-23T14:00:03.675Z,13.23
2018-08-23T14:02:32.499Z,15.17
2018-08-23T14:05:01.993Z,14.93
2018-08-23T14:07:31.372Z,12.03
2018-08-23T14:10:00.051Z,12.30
2018-08-23T14:12:28.549Z,13.00
2018-08-23T14:14:58.094Z,14.43
2018-08-23T14:17:28.329Z,14.00
2018-08-23T14:19:56.967Z,13.83
2018-08-23T14:22:25.610Z,15.37
2018-08-23T14:24:54.196Z,15.43
2018-08-23T14:27:22.848Z,15.60
2018-08-23T14:29:52.138Z,16.23
2018-08-23T14:32:21.253Z,14.73
2018-08-23T14:34:49.793Z,14.53
2018-08-23T14:37:18.489Z,14.90
2018-08-23T14:39:47.092Z,14.73
2018-08-23T14:42:15.647Z,13.23
2018-08-23T14:44:44.162Z,16.60
2018-08-23T14:47:18.041Z,15.60
2018-08-23T14:49:46.498Z,13.00
2018-08-23T14:52:15.056Z,12.20
2018-08-23T14:54:43.779Z,16.00
2018-08-23T14:57:17.558Z,13.93
2018-08-23T14:59:46.245Z,15.27
2018-08-23T15:02:14.986Z,11.53
2018-08-23T15:04:46.548Z,17.33
2018-08-23T15:07:15.665Z,15.50
2018-08-23T15:09:44.248Z,12.73
2018-08-23T15:12:13.002Z,11.10
2018-08-23T15:14:44.735Z,10.10
2018-08-23T15:17:13.737Z,16.17
2018-08-23T15:19:42.362Z,13.03
2018-08-23T15:22:11.105Z,13.90
2018-08-23T15:24:39.919Z,10.73
2018-08-23T15:27:08.631Z,12.57
2018-08-23T15:29:37.432Z,10.17
2018-08-23T15:32:06.091Z,8.63
2018-08-23T15:34:34.756Z,13.30
2018-08-23T15:37:03.357Z,13.77
2018-08-23T15:39:32.110Z,11.17
2018-08-23T15:42:00.693Z,11.70
2018-08-23T15:44:30.275Z,10.23
2018-08-23T15:46:59.220Z,10.23
2018-08-23T15:49:28.695Z,10.50
2018-08-23T15:51:58.805Z,7.77
2018-08-23T15:54:28.490Z,12.07
2018-08-23T15:56:57.302Z,9.20
2018-08-23T15:59:25.954Z,13.70
2018-08-23T16:02:07.532Z,9.80
2018-08-23T16:04:37.021Z,7.43
2018-08-23T16:07:05.693Z,11.63
2018-08-23T16:09:34.293Z,9.23
2018-08-23T16:12:03.660Z,10.43
2018-08-23T16:14:32.289Z,13.33
2018-08-23T16:17:07.101Z,12.07
2018-08-23T16:19:41.557Z,9.07
2018-08-23T16:22:10.279Z,9.97
2018-08-23T16:24:38.854Z,11.17
2018-08-23T16:27:07.391Z,12.37
2018-08-23T16:29:35.917Z,12.10
2018-08-23T16:32:04.648Z,11.23
2018-08-23T16:34:33.177Z,10.33
2018-08-23T16:37:02.972Z,10.35
2018-08-23T16:39:31.451Z,10.30
2018-08-23T16:41:59.919Z,10.67
2018-08-23T16:44:29.052Z,11.10
2018-08-23T16:46:57.477Z,6.73
2018-08-23T16:49:26.858Z,10.43
2018-08-23T16:51:55.823Z,9.10
2018-08-23T16:54:24.312Z,11.13
2018-08-23T16:56:52.826Z,9.47
2018-08-23T16:59:21.281Z,9.00
2018-08-23T17:01:49.932Z,8.68
2018-08-23T17:04:18.352Z,8.57
2018-08-23T17:06:46.876Z,9.67
2018-08-23T17:09:15.365Z,6.77
2018-08-23T17:11:43.836Z,7.20
2018-08-23T17:14:14.610Z,6.97
2018-08-23T17:16:48.419Z,5.87
2018-08-23T17:19:16.903Z,7.57
2018-08-23T17:21:46.414Z,6.13
2018-08-23T17:24:15.025Z,7.60
2018-08-23T17:26:43.481Z,7.03
2018-08-23T17:29:12.060Z,7.57
2018-08-23T17:31:40.578Z,5.30
2018-08-23T17:34:09.567Z,7.00
2018-08-23T17:36:38.134Z,8.63
2018-08-23T17:39:07.759Z,5.93
2018-08-23T17:41:36.545Z,5.90
2018-08-23T17:44:05.034Z,5.50
2018-08-23T17:46:33.574Z,6.10
2018-08-23T17:49:02.137Z,4.47
2018-08-23T17:51:30.756Z,5.50
2018-08-23T17:53:59.297Z,5.30
2018-08-23T17:56:27.844Z,6.17
2018-08-23T17:58:56.429Z,9.23
2018-08-23T18:01:25.912Z,4.97
2018-08-23T18:03:54.457Z,7.70
2018-08-23T18:06:23.062Z,5.43
2018-08-23T18:08:51.638Z,4.73
2018-08-23T18:11:20.218Z,5.90
2018-08-23T18:13:48.793Z,6.93
2018-08-23T18:16:22.596Z,7.20
2018-08-23T18:18:51.962Z,6.47
2018-08-23T18:21:20.514Z,5.93
2018-08-23T18:23:49.147Z,7.43
2018-08-23T18:26:17.625Z,6.20
2018-08-23T18:28:46.337Z,5.27
2018-08-23T18:31:15.091Z,5.03
2018-08-23T18:33:43.959Z,5.42
2018-08-23T18:36:12.624Z,6.63
2018-08-23T18:38:41.124Z,4.77
2018-08-23T18:41:09.706Z,5.63
2018-08-23T18:43:39.124Z,6.30
2018-08-23T18:46:08.634Z,5.77
2018-08-23T18:48:37.272Z,8.03
2018-08-23T18:51:08.981Z,5.43
2018-08-23T18:53:37.512Z,5.87
2018-08-23T18:56:06.655Z,5.90
2018-08-23T18:58:35.386Z,7.73
2018-08-23T19:01:03.880Z,6.12
2018-08-23T19:03:32.542Z,5.10
2018-08-23T19:06:04.297Z,5.47
2018-08-23T19:08:32.805Z,7.80
2018-08-23T19:11:02.373Z,7.23
2018-08-23T19:13:30.903Z,5.87
2018-08-23T19:16:06.419Z,8.87
2018-08-23T19:18:36.007Z,8.50
2018-08-23T19:21:04.502Z,9.07
2018-08-23T19:23:33.568Z,8.53
2018-08-23T19:26:02.641Z,5.93
2018-08-23T19:28:31.165Z,7.70
2018-08-23T19:31:00.829Z,7.87
2018-08-23T19:33:33.603Z,9.70
2018-08-23T19:36:05.788Z,6.53
2018-08-23T19:38:34.337Z,7.53
2018-08-23T19:41:02.846Z,9.50
2018-08-23T19:43:31.480Z,7.67
2018-08-23T19:46:05.412Z,9.63
2018-08-23T19:48:34.060Z,8.23
2018-08-23T19:51:06.444Z,8.53
2018-08-23T19:53:34.980Z,9.20
2018-08-23T19:56:04.351Z,7.67
2018-08-23T19:58:33.480Z,9.53
2018-08-23T20:01:16.122Z,8.77
2018-08-23T20:03:50.897Z,8.23
2018-08-23T20:06:19.630Z,8.10
2018-08-23T20:08:48.077Z,8.70
2018-08-23T20:11:17.338Z,9.30
2018-08-23T20:15:25.397Z,10.00
2018-08-23T20:18:17.622Z,7.30
2018-08-23T20:20:46.372Z,9.17
2018-08-23T20:23:34.683Z,8.37
2018-08-23T20:26:03.314Z,9.03
2018-08-23T20:28:31.761Z,9.90
2018-08-23T20:36:41.776Z,8.70
2018-08-23T20:39:12.752Z,11.23
2018-08-23T20:41:41.562Z,10.07
2018-08-23T20:47:01.613Z,7.90
2018-08-23T20:49:30.062Z,11.20
2018-08-23T20:51:58.526Z,13.43
2018-08-23T20:54:26.960Z,10.40
2018-08-23T20:57:16.941Z,12.77
2018-08-23T21:02:37.660Z,11.07
2018-08-23T21:05:06.118Z,10.97
2018-08-23T21:07:46.191Z,11.73
2018-08-23T21:10:14.662Z,13.50
2018-08-23T21:12:43.100Z,9.50
2018-08-23T21:15:11.670Z,13.03
2018-08-23T21:17:40.078Z,11.63
2018-08-23T21:20:08.580Z,11.17
2018-08-23T21:22:37.138Z,11.60
2018-08-23T21:25:05.583Z,12.80
2018-08-23T21:27:34.115Z,11.20
2018-08-23T21:30:02.716Z,10.73
2018-08-23T21:32:31.083Z,12.40
2018-08-23T21:34:59.585Z,14.40
2018-08-23T21:37:27.984Z,8.70
2018-08-23T21:39:56.469Z,10.70
2018-08-23T21:42:24.854Z,8.47
2018-08-23T21:47:46.696Z,12.07
2018-08-23T21:50:18.861Z,12.00
2018-08-23T21:55:40.366Z,10.07
2018-08-23T21:58:10.021Z,10.00
2018-08-23T22:00:43.863Z,11.23
2018-08-23T22:03:59.736Z,10.50
2018-08-23T22:06:28.113Z,8.03
2018-08-23T22:08:56.636Z,7.77
2018-08-23T22:11:25.044Z,9.00
2018-08-23T22:13:53.434Z,10.07
2018-08-23T22:16:21.959Z,11.57
2018-08-23T22:18:50.348Z,8.90
2018-08-23T22:21:18.868Z,12.73
2018-08-23T22:24:17.516Z,9.20
2018-08-23T22:46:25.244Z,8.27
2018-08-23T22:48:53.800Z,10.70
2018-08-23T22:54:18.314Z,8.13
2018-08-23T22:56:46.859Z,9.10
2018-08-23T23:02:08.268Z,10.60
2018-08-23T23:04:36.746Z,7.40
2018-08-23T23:07:08.283Z,10.47
2018-08-23T23:09:36.713Z,9.30
2018-08-23T23:12:05.118Z,9.37
2018-08-23T23:14:33.578Z,10.87
2018-08-23T23:17:15.697Z,10.20
2018-08-23T23:19:44.218Z,6.73
2018-08-23T23:22:18.855Z,8.43
2018-08-23T23:27:39.973Z,9.60
2018-08-23T23:30:17.372Z,8.37
2018-08-23T23:32:47.374Z,7.60
2018-08-23T23:38:08.713Z,4.33
2018-08-23T23:40:37.136Z,4.13
2018-08-23T23:43:05.582Z,3.37
2018-08-23T23:45:34.026Z,3.47
2018-08-23T23:48:02.479Z,2.20
2018-08-23T23:50:45.845Z,2.87
2018-08-23T23:53:14.182Z,2.97
2018-08-23T23:55:47.048Z,1.83
2018-08-23T23:58:15.554Z,1.70
